ACA844 CYUL-EDDF
Flight info
| Callsign | ACA844 |
|---|---|
| Flight time | N/A |
| Altitude | 37000 |
| Route | CYUL5/24L ANTEG DCT OBRON DCT MOBUB DCT EBMOS DCT CEFOU DCT YNA DCT YAY DCT RIKAL/M085F390 DCT 53N050W 55N040W 56N030W 56N020W DCT RESNO DCT NETKI/N0498F390 DCT NIBOG DCT BELOX L603 DOLAS DCT NAVPI DCT SOGPO DCT DIXAT DIXAT1C |
| Aircraft | B789/H-SDE1E2E3FGHIJ2J3J4J5M1RWXY/LB1D1 |
Departure
| Time | N/A |
|---|---|
| Airport | Montreal / Pierre Elliott Trudeau International Airport (CYUL) |
Arrival
| Time | 2026-05-07 21:41 |
|---|---|
| Airport | Frankfurt Main Airport (EDDF) |
| Time | Latitude | Longitude | Altitude | Speed | Heading |
|---|---|---|---|---|---|
| 2026-05-07 20:50 | 52.77937 | 1.87022 | 41103 ft | 496 kts | 112° |
| 2026-05-07 20:51 | 52.75441 | 1.97667 | 41105 ft | 496 kts | 112° |
| 2026-05-07 20:51 | 52.72953 | 2.08223 | 41104 ft | 497 kts | 112° |
| 2026-05-07 20:52 | 52.70435 | 2.18860 | 41106 ft | 498 kts | 113° |
| 2026-05-07 20:52 | 52.67907 | 2.29481 | 41108 ft | 498 kts | 113° |
| 2026-05-07 20:53 | 52.65371 | 2.40084 | 41110 ft | 497 kts | 113° |
| 2026-05-07 20:53 | 52.62825 | 2.50681 | 41106 ft | 497 kts | 113° |
| 2026-05-07 20:54 | 52.60706 | 2.59457 | 41109 ft | 496 kts | 113° |
| 2026-05-07 20:54 | 52.57737 | 2.71699 | 41105 ft | 495 kts | 113° |
| 2026-05-07 20:55 | 52.55174 | 2.82215 | 41103 ft | 496 kts | 113° |
| 2026-05-07 20:55 | 52.53299 | 2.93134 | 41119 ft | 498 kts | 105° |
| 2026-05-07 20:56 | 52.51622 | 3.04195 | 41128 ft | 499 kts | 106° |
| 2026-05-07 20:56 | 52.49880 | 3.15125 | 41115 ft | 498 kts | 105° |
| 2026-05-07 20:57 | 52.48171 | 3.26129 | 41115 ft | 498 kts | 106° |
| 2026-05-07 20:57 | 52.46415 | 3.37115 | 41111 ft | 498 kts | 106° |
| 2026-05-07 20:58 | 52.44669 | 3.48118 | 41108 ft | 499 kts | 106° |
| 2026-05-07 20:58 | 52.42906 | 3.59061 | 41108 ft | 500 kts | 106° |
| 2026-05-07 20:59 | 52.41130 | 3.70063 | 41111 ft | 500 kts | 106° |
| 2026-05-07 20:59 | 52.39341 | 3.81054 | 41111 ft | 500 kts | 106° |
| 2026-05-07 21:00 | 52.37537 | 3.92069 | 41104 ft | 500 kts | 107° |
| 2026-05-07 21:00 | 52.35728 | 4.03046 | 41101 ft | 500 kts | 107° |
| 2026-05-07 21:01 | 52.33921 | 4.13936 | 41096 ft | 499 kts | 107° |
| 2026-05-07 21:01 | 52.32095 | 4.24875 | 41090 ft | 499 kts | 107° |
| 2026-05-07 21:02 | 52.30425 | 4.34817 | 41097 ft | 499 kts | 107° |
| 2026-05-07 21:02 | 52.28577 | 4.45753 | 41092 ft | 500 kts | 107° |
| 2026-05-07 21:03 | 52.26727 | 4.56633 | 41103 ft | 501 kts | 107° |
| 2026-05-07 21:03 | 52.24854 | 4.67584 | 41100 ft | 501 kts | 107° |
| 2026-05-07 21:04 | 52.22970 | 4.78526 | 41105 ft | 501 kts | 107° |
| 2026-05-07 21:04 | 52.21397 | 4.87608 | 41093 ft | 501 kts | 107° |
| 2026-05-07 21:05 | 52.19182 | 5.00323 | 41089 ft | 501 kts | 107° |
| 2026-05-07 21:05 | 52.17273 | 5.11207 | 41085 ft | 500 kts | 107° |
| 2026-05-07 21:06 | 52.15679 | 5.20247 | 41087 ft | 500 kts | 107° |
| 2026-05-07 21:06 | 52.13752 | 5.31110 | 41086 ft | 499 kts | 107° |
| 2026-05-07 21:07 | 52.11500 | 5.43726 | 41091 ft | 499 kts | 108° |
| 2026-05-07 21:07 | 52.09554 | 5.54561 | 41093 ft | 499 kts | 108° |
| 2026-05-07 21:08 | 52.07932 | 5.63537 | 41095 ft | 499 kts | 108° |
| 2026-05-07 21:08 | 52.05975 | 5.74313 | 41099 ft | 500 kts | 108° |
| 2026-05-07 21:09 | 52.03670 | 5.86920 | 41100 ft | 501 kts | 108° |
| 2026-05-07 21:09 | 52.02001 | 5.95999 | 41094 ft | 501 kts | 108° |
| 2026-05-07 21:10 | 52.00013 | 6.06750 | 41090 ft | 501 kts | 108° |
| 2026-05-07 21:10 | 51.97996 | 6.17557 | 41089 ft | 500 kts | 109° |
| 2026-05-07 21:10 | 51.96619 | 6.22713 | 41104 ft | 497 kts | 121° |
| 2026-05-07 21:11 | 51.94664 | 6.27321 | 41089 ft | 495 kts | 132° |
| 2026-05-07 21:11 | 51.92223 | 6.31196 | 41095 ft | 492 kts | 143° |
| 2026-05-07 21:11 | 51.86778 | 6.37966 | 41101 ft | 494 kts | 143° |
| 2026-05-07 21:12 | 51.81519 | 6.45006 | 41104 ft | 493 kts | 142° |
| 2026-05-07 21:12 | 51.76149 | 6.51896 | 41105 ft | 493 kts | 144° |
| 2026-05-07 21:13 | 51.70822 | 6.58826 | 41101 ft | 494 kts | 143° |
| 2026-05-07 21:13 | 51.65452 | 6.65757 | 41103 ft | 494 kts | 143° |
| 2026-05-07 21:14 | 51.62776 | 6.69183 | 40818 ft | 489 kts | 143° |
| 2026-05-07 21:14 | 51.60155 | 6.72564 | 40147 ft | 489 kts | 143° |
| 2026-05-07 21:14 | 51.57504 | 6.75986 | 39525 ft | 488 kts | 143° |
| 2026-05-07 21:14 | 51.54851 | 6.79385 | 38921 ft | 487 kts | 143° |
| 2026-05-07 21:15 | 51.52206 | 6.82760 | 38224 ft | 486 kts | 143° |
| 2026-05-07 21:15 | 51.49569 | 6.86130 | 37521 ft | 483 kts | 143° |
| 2026-05-07 21:15 | 51.46955 | 6.89473 | 36864 ft | 479 kts | 143° |
| 2026-05-07 21:15 | 51.44349 | 6.92795 | 36227 ft | 477 kts | 143° |
| 2026-05-07 21:16 | 51.41754 | 6.96093 | 35583 ft | 476 kts | 143° |
| 2026-05-07 21:16 | 51.39168 | 6.99376 | 34918 ft | 477 kts | 143° |
| 2026-05-07 21:16 | 51.36592 | 7.02645 | 34237 ft | 479 kts | 143° |
| 2026-05-07 21:16 | 51.33985 | 7.05950 | 33414 ft | 479 kts | 143° |
| 2026-05-07 21:17 | 51.31396 | 7.09226 | 32630 ft | 480 kts | 143° |
| 2026-05-07 21:17 | 51.28776 | 7.12534 | 31843 ft | 481 kts | 143° |
| 2026-05-07 21:17 | 51.26094 | 7.15604 | 31014 ft | 482 kts | 151° |
| 2026-05-07 21:17 | 51.23112 | 7.18070 | 30213 ft | 483 kts | 156° |
| 2026-05-07 21:18 | 51.20075 | 7.20379 | 29274 ft | 484 kts | 156° |
| 2026-05-07 21:18 | 51.17057 | 7.22711 | 28410 ft | 480 kts | 155° |
| 2026-05-07 21:18 | 51.14130 | 7.25076 | 27588 ft | 475 kts | 154° |
| 2026-05-07 21:18 | 51.11209 | 7.27456 | 26787 ft | 470 kts | 154° |
| 2026-05-07 21:19 | 51.08328 | 7.29860 | 25982 ft | 465 kts | 154° |
| 2026-05-07 21:19 | 51.05455 | 7.32156 | 25196 ft | 460 kts | 155° |
| 2026-05-07 21:19 | 51.02613 | 7.34462 | 24409 ft | 456 kts | 154° |
| 2026-05-07 21:19 | 50.99817 | 7.36800 | 23643 ft | 452 kts | 153° |
| 2026-05-07 21:20 | 50.97044 | 7.39111 | 22758 ft | 447 kts | 154° |
| 2026-05-07 21:20 | 50.94295 | 7.41356 | 21963 ft | 441 kts | 154° |
| 2026-05-07 21:20 | 50.91586 | 7.43559 | 21208 ft | 435 kts | 154° |
| 2026-05-07 21:20 | 50.88920 | 7.45747 | 20649 ft | 426 kts | 154° |
| 2026-05-07 21:21 | 50.86355 | 7.47857 | 20289 ft | 418 kts | 154° |
| 2026-05-07 21:21 | 50.83764 | 7.49973 | 20112 ft | 419 kts | 154° |
| 2026-05-07 21:21 | 50.81220 | 7.52044 | 19655 ft | 400 kts | 154° |
| 2026-05-07 21:21 | 50.78790 | 7.54026 | 18336 ft | 390 kts | 154° |
| 2026-05-07 21:22 | 50.76293 | 7.56055 | 17205 ft | 412 kts | 154° |
| 2026-05-07 21:22 | 50.73750 | 7.58123 | 16329 ft | 409 kts | 154° |
| 2026-05-07 21:22 | 50.71243 | 7.60164 | 15683 ft | 401 kts | 154° |
| 2026-05-07 21:22 | 50.68794 | 7.62152 | 15276 ft | 391 kts | 154° |
| 2026-05-07 21:23 | 50.66415 | 7.64077 | 15105 ft | 390 kts | 154° |
| 2026-05-07 21:23 | 50.63986 | 7.66039 | 15097 ft | 395 kts | 154° |
| 2026-05-07 21:23 | 50.61545 | 7.68013 | 15084 ft | 395 kts | 154° |
| 2026-05-07 21:23 | 50.59098 | 7.69991 | 15084 ft | 396 kts | 154° |
| 2026-05-07 21:24 | 50.56634 | 7.71977 | 14831 ft | 397 kts | 154° |
| 2026-05-07 21:24 | 50.54187 | 7.73946 | 14492 ft | 391 kts | 154° |
| 2026-05-07 21:24 | 50.51788 | 7.75875 | 14022 ft | 396 kts | 154° |
| 2026-05-07 21:24 | 50.49364 | 7.77821 | 13560 ft | 391 kts | 154° |
| 2026-05-07 21:25 | 50.46967 | 7.79745 | 13136 ft | 384 kts | 154° |
| 2026-05-07 21:25 | 50.44593 | 7.81648 | 12762 ft | 382 kts | 154° |
| 2026-05-07 21:25 | 50.42389 | 7.83824 | 12368 ft | 368 kts | 143° |
| 2026-05-07 21:25 | 50.40437 | 7.86290 | 12051 ft | 353 kts | 141° |
| 2026-05-07 21:26 | 50.38570 | 7.88675 | 11756 ft | 339 kts | 142° |
| 2026-05-07 21:26 | 50.36755 | 7.90928 | 11476 ft | 327 kts | 143° |
| 2026-05-07 21:26 | 50.35021 | 7.93049 | 11211 ft | 315 kts | 143° |
| 2026-05-07 21:26 | 50.33330 | 7.95135 | 10950 ft | 304 kts | 142° |
| 2026-05-07 21:27 | 50.31704 | 7.97154 | 10706 ft | 294 kts | 142° |
| 2026-05-07 21:27 | 50.30127 | 7.99106 | 10473 ft | 284 kts | 142° |
| 2026-05-07 21:27 | 50.28587 | 8.01005 | 10249 ft | 280 kts | 142° |
| 2026-05-07 21:27 | 50.27002 | 8.02724 | 9988 ft | 278 kts | 155° |
| 2026-05-07 21:28 | 50.25112 | 8.03223 | 9663 ft | 276 kts | 183° |
| 2026-05-07 21:28 | 50.23244 | 8.02629 | 9468 ft | 272 kts | 195° |
| 2026-05-07 21:28 | 50.21408 | 8.01893 | 9313 ft | 273 kts | 195° |
| 2026-05-07 21:28 | 50.19563 | 8.01185 | 9156 ft | 273 kts | 194° |
| 2026-05-07 21:29 | 50.17736 | 8.00512 | 8985 ft | 273 kts | 194° |
| 2026-05-07 21:29 | 50.15887 | 7.99828 | 8806 ft | 272 kts | 194° |
| 2026-05-07 21:29 | 50.14050 | 7.99139 | 8621 ft | 271 kts | 194° |
| 2026-05-07 21:29 | 50.12219 | 7.98452 | 8430 ft | 270 kts | 194° |
| 2026-05-07 21:30 | 50.10394 | 7.97771 | 8244 ft | 269 kts | 194° |
| 2026-05-07 21:30 | 50.08575 | 7.97093 | 8047 ft | 269 kts | 194° |
| 2026-05-07 21:30 | 50.06762 | 7.96418 | 7850 ft | 268 kts | 194° |
| 2026-05-07 21:30 | 50.04951 | 7.95768 | 7644 ft | 266 kts | 192° |
| 2026-05-07 21:31 | 50.03141 | 7.95387 | 7454 ft | 266 kts | 189° |
| 2026-05-07 21:31 | 50.01324 | 7.94880 | 7267 ft | 265 kts | 191° |
| 2026-05-07 21:31 | 49.99511 | 7.94383 | 7082 ft | 264 kts | 190° |
| 2026-05-07 21:31 | 49.97694 | 7.94015 | 6854 ft | 262 kts | 182° |
| 2026-05-07 21:32 | 49.95937 | 7.94769 | 6555 ft | 266 kts | 152° |
| 2026-05-07 21:32 | 49.94618 | 7.96717 | 6257 ft | 265 kts | 122° |
| 2026-05-07 21:32 | 49.94023 | 7.99377 | 6039 ft | 259 kts | 99° |
| 2026-05-07 21:32 | 49.93771 | 8.02073 | 5905 ft | 246 kts | 98° |
| 2026-05-07 21:33 | 49.93519 | 8.04661 | 5754 ft | 241 kts | 98° |
| 2026-05-07 21:33 | 49.93421 | 8.07191 | 5483 ft | 239 kts | 79° |
| 2026-05-07 21:33 | 49.94017 | 8.09566 | 5149 ft | 235 kts | 64° |
| 2026-05-07 21:33 | 49.94647 | 8.11917 | 5011 ft | 236 kts | 69° |
| 2026-05-07 21:34 | 49.95223 | 8.14305 | 4999 ft | 236 kts | 69° |
| 2026-05-07 21:34 | 49.95778 | 8.16623 | 4980 ft | 223 kts | 69° |
| 2026-05-07 21:34 | 49.96308 | 8.18835 | 4779 ft | 216 kts | 69° |
| 2026-05-07 21:34 | 49.96817 | 8.20961 | 4540 ft | 206 kts | 69° |
| 2026-05-07 21:35 | 49.97312 | 8.23027 | 4205 ft | 201 kts | 69° |
| 2026-05-07 21:35 | 49.97785 | 8.25005 | 3910 ft | 195 kts | 69° |
| 2026-05-07 21:35 | 49.98253 | 8.26956 | 3624 ft | 190 kts | 69° |
| 2026-05-07 21:35 | 49.98708 | 8.28857 | 3354 ft | 186 kts | 69° |
| 2026-05-07 21:36 | 49.99153 | 8.30712 | 3093 ft | 181 kts | 69° |
| 2026-05-07 21:36 | 49.99588 | 8.32527 | 2825 ft | 177 kts | 69° |
| 2026-05-07 21:36 | 50.00012 | 8.34298 | 2563 ft | 173 kts | 70° |
| 2026-05-07 21:36 | 50.00427 | 8.36031 | 2322 ft | 171 kts | 70° |
| 2026-05-07 21:37 | 50.00851 | 8.37800 | 2090 ft | 178 kts | 70° |
| 2026-05-07 21:37 | 50.01272 | 8.39558 | 1826 ft | 167 kts | 70° |
| 2026-05-07 21:37 | 50.01659 | 8.41175 | 1585 ft | 158 kts | 70° |
| 2026-05-07 21:37 | 50.02028 | 8.42714 | 1356 ft | 148 kts | 70° |
| 2026-05-07 21:38 | 50.02386 | 8.44213 | 1138 ft | 148 kts | 69° |
| 2026-05-07 21:38 | 50.02744 | 8.45700 | 939 ft | 146 kts | 68° |
| 2026-05-07 21:38 | 50.03087 | 8.47110 | 733 ft | 145 kts | 68° |
| 2026-05-07 21:38 | 50.03159 | 8.47414 | 684 ft | 145 kts | 68° |
| 2026-05-07 21:39 | 50.03214 | 8.47643 | 661 ft | 145 kts | 68° |
| 2026-05-07 21:40 | 50.03513 | 8.48899 | 468 ft | 144 kts | 67° |
| 2026-05-07 21:40 | 50.03850 | 8.50355 | 330 ft | 137 kts | 64° |
| 2026-05-07 21:40 | 50.04133 | 8.51495 | 337 ft | 86 kts | 69° |
| 2026-05-07 21:41 | 50.04291 | 8.52148 | 355 ft | 50 kts | 69° |
| 2026-05-07 21:41 | 50.04387 | 8.52582 | 357 ft | 36 kts | 78° |
| 2026-05-07 21:41 | 50.04384 | 8.52892 | 364 ft | 16 kts | 101° |
| 2026-05-07 21:41 | 50.04369 | 8.53033 | 365 ft | 12 kts | 99° |
| 2026-05-07 21:42 | 50.04356 | 8.53153 | 368 ft | 10 kts | 99° |
| 2026-05-07 21:42 | 50.04348 | 8.53231 | 367 ft | 5 kts | 96° |
| 2026-05-07 21:42 | 50.04350 | 8.53286 | 370 ft | 9 kts | 79° |
| 2026-05-07 21:42 | 50.04373 | 8.53396 | 379 ft | 10 kts | 70° |
| 2026-05-07 21:43 | 50.04393 | 8.53495 | 380 ft | 13 kts | 79° |
| 2026-05-07 21:43 | 50.04407 | 8.53699 | 381 ft | 25 kts | 84° |
| 2026-05-07 21:43 | 50.04426 | 8.53968 | 381 ft | 25 kts | 84° |
| 2026-05-07 21:43 | 50.04442 | 8.54218 | 381 ft | 18 kts | 84° |
| 2026-05-07 21:44 | 50.04454 | 8.54428 | 376 ft | 21 kts | 90° |
| 2026-05-07 21:44 | 50.04397 | 8.54669 | 371 ft | 26 kts | 129° |
| 2026-05-07 21:44 | 50.04233 | 8.54820 | 359 ft | 30 kts | 161° |
| 2026-05-07 21:44 | 50.04070 | 8.54909 | 363 ft | 14 kts | 159° |
| 2026-05-07 21:45 | 50.04016 | 8.54983 | 363 ft | 8 kts | 97° |
| 2026-05-07 21:45 | 50.04039 | 8.55106 | 363 ft | 19 kts | 69° |
| 2026-05-07 21:45 | 50.04103 | 8.55369 | 364 ft | 29 kts | 70° |
| 2026-05-07 21:45 | 50.04170 | 8.55651 | 365 ft | 26 kts | 70° |
| 2026-05-07 21:46 | 50.04232 | 8.55913 | 361 ft | 26 kts | 69° |
| 2026-05-07 21:46 | 50.04294 | 8.56171 | 365 ft | 25 kts | 70° |
| 2026-05-07 21:46 | 50.04355 | 8.56427 | 366 ft | 25 kts | 70° |
| 2026-05-07 21:46 | 50.04416 | 8.56680 | 366 ft | 25 kts | 70° |
| 2026-05-07 21:47 | 50.04475 | 8.56929 | 369 ft | 25 kts | 69° |
| 2026-05-07 21:47 | 50.04536 | 8.57187 | 366 ft | 26 kts | 70° |
| 2026-05-07 21:47 | 50.04597 | 8.57439 | 367 ft | 25 kts | 70° |
| 2026-05-07 21:47 | 50.04647 | 8.57652 | 367 ft | 19 kts | 70° |
| 2026-05-07 21:48 | 50.04682 | 8.57800 | 370 ft | 9 kts | 69° |
| 2026-05-07 21:48 | 50.04696 | 8.57855 | 369 ft | 2 kts | 65° |
| 2026-05-07 21:48 | 50.04708 | 8.57889 | 366 ft | 9 kts | 58° |
| 2026-05-07 21:48 | 50.04767 | 8.57926 | 363 ft | 9 kts | 350° |
| 2026-05-07 21:49 | 50.04826 | 8.57879 | 370 ft | 10 kts | 316° |
| 2026-05-07 21:49 | 50.04848 | 8.57830 | 365 ft | 1 kts | 298° |
| 2026-05-07 21:49 | 50.04854 | 8.57802 | 367 ft | 1 kts | 271° |
| 2026-05-07 21:49 | 50.04851 | 8.57793 | 364 ft | 0 kts | 239° |
| 2026-05-07 21:50 | 50.04845 | 8.57780 | 364 ft | 5 kts | 236° |
| 2026-05-07 21:50 | 50.04826 | 8.57738 | 363 ft | 3 kts | 234° |
| 2026-05-07 21:50 | 50.04816 | 8.57718 | 366 ft | 1 kts | 232° |
| 2026-05-07 21:50 | 50.04811 | 8.57708 | 365 ft | 1 kts | 232° |
| 2026-05-07 21:51 | 50.04806 | 8.57698 | 369 ft | 0 kts | 232° |